Time;durP1;ratioP1;P1;durP2;ratioP2;P2;SDS_P1;SDS_P2;PMS_P1;PMS_P2;Temp;Humidity;BMP_temperature;BMP_pressure;BME280_temperature;BME280_humidity;BME280_pressure;Samples;Min_cycle;Max_cycle;Signal;HPM_P1;HPM_P2
2021/04/16 00:00:56;;;;;;;2.33;1.40;;;;;;;5.29;56.37;102046.84;5085744;28;20205;-66
2021/04/16 00:03:23;;;;;;;2.00;1.50;;;;;;;5.28;56.07;102053.03;5085327;28;20288;-66
2021/04/16 00:05:50;;;;;;;3.63;1.23;;;;;;;5.27;55.86;102050.41;5082112;28;20303;-66
2021/04/16 00:08:19;;;;;;;1.93;1.07;;;;;;;5.25;56.28;102045.16;5086431;28;20204;-66
2021/04/16 00:10:48;;;;;;;3.17;1.60;;;;;;;5.23;56.55;102047.81;5080349;28;20209;-67
2021/04/16 00:13:17;;;;;;;1.77;1.03;;;;;;;5.23;56.01;102047.81;5082340;28;20419;-66
2021/04/16 00:15:45;;;;;;;2.60;1.20;;;;;;;5.22;55.75;102045.22;5088367;28;20204;-66
2021/04/16 00:18:14;;;;;;;1.63;1.40;;;;;;;5.20;55.95;102047.00;5082111;28;20198;-66
2021/04/16 00:20:42;;;;;;;2.00;1.30;;;;;;;5.19;55.93;102048.81;5087030;28;20214;-66
2021/04/16 00:23:08;;;;;;;2.60;1.40;;;;;;;5.19;56.02;102042.66;5079656;28;20204;-66
2021/04/16 00:25:35;;;;;;;1.27;1.10;;;;;;;5.19;55.84;102035.59;5081426;28;20357;-66
2021/04/16 00:28:02;;;;;;;1.87;1.00;;;;;;;5.19;55.76;102037.38;5074141;28;20204;-66
2021/04/16 00:30:31;;;;;;;1.33;1.00;;;;;;;5.18;55.77;102033.84;5082900;28;20216;-66
2021/04/16 00:32:58;;;;;;;2.20;1.10;;;;;;;5.18;55.41;102027.69;5083164;28;20211;-66
2021/04/16 00:35:25;;;;;;;1.83;1.10;;;;;;;5.18;55.16;102020.66;5089118;28;20221;-67
2021/04/16 00:37:52;;;;;;;1.77;1.20;;;;;;;5.18;55.69;102010.09;5089432;28;20312;-67
2021/04/16 00:40:22;;;;;;;1.57;1.00;;;;;;;5.20;55.38;102016.19;5096050;28;20207;-67
2021/04/16 00:42:54;;;;;;;1.40;1.30;;;;;;;5.23;55.82;102009.97;5086254;28;20311;-66
2021/04/16 00:45:21;;;;;;;2.23;1.43;;;;;;;5.23;55.63;102007.34;5078010;28;20216;-66
2021/04/16 00:47:47;;;;;;;2.63;1.23;;;;;;;5.23;55.22;101994.13;5096661;28;20242;-66
2021/04/16 00:50:22;;;;;;;1.77;1.20;;;;;;;5.23;55.39;101991.47;5088716;28;20200;-66
2021/04/16 00:52:50;;;;;;;2.33;1.50;;;;;;;5.24;55.48;101993.22;5087674;28;20616;-66
2021/04/16 00:55:18;;;;;;;2.73;1.63;;;;;;;5.24;55.93;101990.59;5087723;28;20228;-67
2021/04/16 00:57:45;;;;;;;1.87;1.00;;;;;;;5.24;55.43;101988.81;5085635;28;20596;-66
2021/04/16 01:00:13;;;;;;;3.20;1.50;;;;;;;5.24;56.08;101995.88;5083821;28;20580;-66
2021/04/16 01:02:40;;;;;;;1.87;1.17;;;;;;;5.24;55.58;101994.09;5087996;28;20677;-66
2021/04/16 01:05:09;;;;;;;2.73;1.27;;;;;;;5.23;55.72;101988.84;5086177;28;20747;-66
2021/04/16 01:07:35;;;;;;;2.23;1.10;;;;;;;5.23;56.11;101996.75;5088372;28;20232;-66
2021/04/16 01:10:04;;;;;;;3.80;1.37;;;;;;;5.21;55.96;101990.63;5086399;28;20200;-66
2021/04/16 01:12:32;;;;;;;1.70;1.20;;;;;;;5.20;55.31;101994.19;5092499;28;20573;-66
2021/04/16 01:15:03;;;;;;;2.77;1.40;;;;;;;5.17;55.55;101991.63;5088818;28;20221;-66
2021/04/16 01:17:29;;;;;;;2.20;1.30;;;;;;;5.15;55.30;101990.78;5089981;28;20246;-66
2021/04/16 01:20:04;;;;;;;1.37;1.10;;;;;;;5.14;55.70;101989.03;5092875;28;20555;-66
2021/04/16 01:22:35;;;;;;;1.47;1.30;;;;;;;5.10;56.00;101987.34;5085356;28;20207;-66
2021/04/16 01:25:07;;;;;;;2.30;1.00;;;;;;;5.09;55.76;101982.97;5090207;28;20270;-66
2021/04/16 01:27:33;;;;;;;3.27;1.63;;;;;;;5.08;56.61;101983.88;5082306;28;20227;-66
2021/04/16 01:30:05;;;;;;;1.40;1.20;;;;;;;5.07;56.50;101990.03;5086786;28;20207;-66
2021/04/16 01:32:32;;;;;;;2.07;1.40;;;;;;;5.04;56.17;101983.03;5083573;28;20216;-66
2021/04/16 01:34:58;;;;;;;1.63;1.20;;;;;;;5.02;56.42;101979.56;5080140;28;20224;-66
2021/04/16 01:37:27;;;;;;;2.20;1.30;;;;;;;4.99;56.40;101987.56;5088940;28;20197;-67
2021/04/16 01:39:54;;;;;;;3.57;1.40;;;;;;;4.97;57.18;101981.44;5088689;28;20245;-67
2021/04/16 01:42:22;;;;;;;2.27;1.40;;;;;;;4.97;56.79;101981.44;5082378;28;20201;-66
2021/04/16 01:44:48;;;;;;;2.63;1.37;;;;;;;4.94;57.34;101980.63;5079029;28;20712;-66
2021/04/16 01:47:15;;;;;;;1.30;1.20;;;;;;;4.91;57.20;101978.91;5085635;28;20225;-66
2021/04/16 01:49:43;;;;;;;2.17;1.20;;;;;;;4.90;56.77;101969.25;5091442;28;20205;-66
2021/04/16 01:52:12;;;;;;;2.00;1.50;;;;;;;4.89;57.53;101971.03;5092008;28;20662;-66
2021/04/16 01:54:42;;;;;;;1.60;1.30;;;;;;;4.89;57.62;101972.78;5089876;28;20228;-66
2021/04/16 01:57:11;;;;;;;2.63;1.40;;;;;;;4.88;57.37;101973.69;5090915;28;20246;-66
2021/04/16 01:59:40;;;;;;;2.07;1.50;;;;;;;4.85;57.25;101973.72;5086481;28;20578;-67
2021/04/16 02:02:08;;;;;;;1.30;1.20;;;;;;;4.82;57.60;101974.69;5082835;28;20669;-66
2021/04/16 02:04:34;;;;;;;2.80;1.47;;;;;;;4.79;57.42;101966.81;5083550;28;20231;-66
2021/04/16 02:07:01;;;;;;;2.50;1.63;;;;;;;4.75;58.39;101975.69;5086958;28;20713;-66
2021/04/16 02:09:30;;;;;;;2.80;1.47;;;;;;;4.67;58.34;101974.94;5089017;28;20201;-66
2021/04/16 02:11:56;;;;;;;1.40;1.10;;;;;;;4.61;59.29;101977.72;5090290;28;20200;-66
2021/04/16 02:14:25;;;;;;;2.40;1.50;;;;;;;4.57;59.24;101978.66;5088678;28;20216;-66
2021/04/16 02:16:54;;;;;;;2.07;1.40;;;;;;;4.54;59.15;101960.22;5087689;28;20207;-66
2021/04/16 02:19:20;;;;;;;2.10;1.30;;;;;;;4.51;60.19;101973.47;5085563;28;20208;-66
2021/04/16 02:21:46;;;;;;;3.53;1.50;;;;;;;4.49;60.35;101968.22;5090856;28;20204;-66
2021/04/16 02:24:13;;;;;;;1.93;1.10;;;;;;;4.48;60.21;101969.13;5083683;28;20216;-66
2021/04/16 02:26:40;;;;;;;2.63;1.60;;;;;;;4.48;60.46;101963.84;5085252;28;20224;-66
2021/04/16 02:29:07;;;;;;;2.23;1.40;;;;;;;4.47;60.59;101962.13;5087716;28;20205;-66
2021/04/16 02:31:33;;;;;;;3.47;1.43;;;;;;;4.47;60.42;101962.13;5085324;28;20234;-66
2021/04/16 02:34:00;;;;;;;3.57;1.60;;;;;;;4.44;60.92;101962.19;5085964;28;20227;-66
2021/04/16 02:36:27;;;;;;;1.80;1.40;;;;;;;4.42;60.95;101958.69;5087015;28;20249;-66
2021/04/16 02:38:53;;;;;;;2.23;1.53;;;;;;;4.41;60.81;101953.44;5085966;28;20205;-66
2021/04/16 02:41:20;;;;;;;2.37;1.70;;;;;;;4.39;61.03;101950.81;5086785;28;20211;-66
2021/04/16 02:43:46;;;;;;;2.23;1.47;;;;;;;4.36;61.16;101950.88;5082107;28;20704;-66
2021/04/16 02:46:12;;;;;;;2.43;1.70;;;;;;;4.35;61.81;101949.13;5080731;28;20228;-66
2021/04/16 02:48:38;;;;;;;2.27;1.70;;;;;;;4.35;61.32;101945.63;5086275;28;20304;-66
2021/04/16 02:51:05;;;;;;;2.70;1.80;;;;;;;4.34;61.02;101947.38;5080335;28;20308;-66
2021/04/16 02:53:31;;;;;;;2.40;1.53;;;;;;;4.34;61.51;101941.25;5085177;28;20231;-66
2021/04/16 02:55:57;;;;;;;1.80;1.60;;;;;;;4.33;61.65;101934.22;5080717;28;20201;-66
2021/04/16 02:58:23;;;;;;;3.70;1.60;;;;;;;4.32;60.75;101935.13;5078038;28;20254;-66
2021/04/16 03:00:49;;;;;;;2.17;1.53;;;;;;;4.31;61.48;101936.88;5089337;28;20232;-66
2021/04/16 03:03:15;;;;;;;2.50;1.50;;;;;;;4.31;61.43;101938.66;5090432;28;20215;-66
2021/04/16 03:05:41;;;;;;;2.60;1.67;;;;;;;4.30;60.85;101934.31;5097030;22;20236;-66
2021/04/16 03:08:08;;;;;;;2.60;1.50;;;;;;;4.30;61.30;101942.22;5069434;28;20577;-68
2021/04/16 03:10:36;;;;;;;4.13;1.87;;;;;;;4.30;60.64;101937.78;5071053;28;20205;-67
2021/04/16 03:13:03;;;;;;;3.50;1.67;;;;;;;4.30;61.02;101944.84;5070514;28;20227;-67
2021/04/16 03:15:29;;;;;;;2.03;1.40;;;;;;;4.31;61.50;101943.91;5069673;28;20216;-67
2021/04/16 03:17:55;;;;;;;2.37;1.50;;;;;;;4.31;60.92;101943.91;5071674;28;20288;-68
2021/04/16 03:20:23;;;;;;;2.27;1.90;;;;;;;4.29;61.41;101946.63;5066916;28;20205;-68
2021/04/16 03:22:49;;;;;;;2.90;1.70;;;;;;;4.30;61.13;101944.84;5065311;28;20201;-68
2021/04/16 03:25:17;;;;;;;2.97;1.53;;;;;;;4.31;61.39;101942.16;5070086;28;20295;-68
2021/04/16 03:27:43;;;;;;;3.47;1.73;;;;;;;4.30;61.03;101937.78;5070774;28;20648;-67
2021/04/16 03:30:13;;;;;;;3.13;1.70;;;;;;;4.31;61.32;101946.56;5070099;28;20200;-68
2021/04/16 03:32:39;;;;;;;3.03;1.60;;;;;;;4.30;61.62;101939.56;5069612;28;20201;-68
2021/04/16 03:35:06;;;;;;;2.20;1.60;;;;;;;4.30;61.26;101939.56;5070245;28;20230;-67
2021/04/16 03:37:32;;;;;;;3.03;1.80;;;;;;;4.30;61.74;101942.22;5070183;28;20193;-68
2021/04/16 03:39:58;;;;;;;2.80;1.90;;;;;;;4.30;61.73;101939.56;5067088;28;20220;-68
2021/04/16 03:42:25;;;;;;;2.20;1.80;;;;;;;4.31;61.60;101946.56;5054131;28;20208;-67
2021/04/16 03:44:51;;;;;;;3.73;1.70;;;;;;;4.31;61.79;101951.84;5064149;28;20221;-68
2021/04/16 03:47:18;;;;;;;2.97;1.67;;;;;;;4.31;61.82;101949.19;5069433;28;20228;-66
2021/04/16 03:49:44;;;;;;;4.93;1.60;;;;;;;4.31;61.39;101954.47;5070307;28;20204;-68
2021/04/16 03:52:11;;;;;;;2.37;1.90;;;;;;;4.32;61.38;101953.56;5069853;28;20209;-68
2021/04/16 03:54:37;;;;;;;2.37;1.57;;;;;;;4.32;61.81;101948.31;5069598;28;20221;-67
2021/04/16 03:57:05;;;;;;;2.53;1.57;;;;;;;4.31;61.63;101944.78;5070383;28;20201;-67
2021/04/16 03:59:31;;;;;;;2.77;1.83;;;;;;;4.32;61.53;101943.03;5068300;28;20209;-67
2021/04/16 04:01:57;;;;;;;2.53;1.67;;;;;;;4.32;61.43;101940.38;5069603;28;20201;-67
2021/04/16 04:04:24;;;;;;;3.27;1.63;;;;;;;4.32;61.88;101941.25;5069267;28;20321;-67
2021/04/16 04:06:51;;;;;;;2.53;1.80;;;;;;;4.31;62.15;101944.78;5065163;28;20619;-67
2021/04/16 04:09:18;;;;;;;2.07;1.87;;;;;;;4.31;61.29;101946.56;5063197;28;20263;-67
2021/04/16 04:11:44;;;;;;;3.40;1.70;;;;;;;4.31;61.81;101951.84;5067123;28;20259;-67
2021/04/16 04:14:10;;;;;;;3.07;1.90;;;;;;;4.31;61.87;101951.84;5063295;28;20221;-68
2021/04/16 04:16:53;;;;;;;2.97;1.80;;;;;;;4.31;61.89;101949.19;5060923;28;20201;-67
2021/04/16 04:19:20;;;;;;;3.70;2.03;;;;;;;4.31;62.18;101947.44;5063121;28;20246;-67
2021/04/16 04:21:47;;;;;;;3.37;2.10;;;;;;;4.32;62.18;101945.66;5062884;28;20205;-67
2021/04/16 04:24:13;;;;;;;3.83;1.73;;;;;;;4.33;61.86;101950.91;5062406;28;20267;-68
2021/04/16 04:26:40;;;;;;;3.43;1.70;;;;;;;4.34;62.62;101939.47;5065700;28;20225;-67
2021/04/16 04:29:07;;;;;;;2.93;1.80;;;;;;;4.35;62.07;101940.34;5065389;28;20208;-67
2021/04/16 04:31:33;;;;;;;3.03;1.90;;;;;;;4.36;62.06;101939.44;5064672;28;20260;-65
2021/04/16 04:34:00;;;;;;;2.87;2.00;;;;;;;4.37;61.99;101941.19;5059986;28;20257;-67
2021/04/16 04:36:26;;;;;;;3.20;1.90;;;;;;;4.37;62.46;101942.06;5056347;28;20201;-65
2021/04/16 04:38:52;;;;;;;2.57;1.70;;;;;;;4.38;62.57;101945.56;5056367;28;20204;-66
2021/04/16 04:41:19;;;;;;;3.60;1.80;;;;;;;4.39;62.49;101944.69;5059300;28;20212;-65
2021/04/16 04:43:45;;;;;;;5.40;1.80;;;;;;;4.40;62.27;101949.06;5056423;28;20634;-66
2021/04/16 04:46:11;;;;;;;2.80;2.00;;;;;;;4.40;62.06;101946.41;5058955;28;20224;-64
2021/04/16 04:48:38;;;;;;;3.40;2.00;;;;;;;4.41;62.72;101946.41;5059664;28;20719;-66
2021/04/16 04:51:05;;;;;;;3.47;1.97;;;;;;;4.43;62.36;101949.00;5062214;28;20201;-68
2021/04/16 04:53:33;;;;;;;5.03;2.73;;;;;;;4.45;62.48;101949.84;5059583;28;20682;-67
2021/04/16 04:55:59;;;;;;;3.13;1.97;;;;;;;4.46;62.84;101954.25;5058395;28;20217;-67
2021/04/16 04:58:25;;;;;;;3.47;2.13;;;;;;;4.48;62.65;101952.41;5059628;28;20880;-67
2021/04/16 05:00:51;;;;;;;3.17;1.93;;;;;;;4.49;62.42;101948.88;5054445;28;20213;-68
2021/04/16 05:03:17;;;;;;;4.60;1.87;;;;;;;4.49;62.47;101949.75;5056247;28;20209;-67
2021/04/16 05:05:43;;;;;;;5.07;2.20;;;;;;;4.50;61.89;101954.13;5054727;28;20243;-66
2021/04/16 05:08:10;;;;;;;4.53;2.43;;;;;;;4.50;62.75;101948.00;5055298;28;20698;-67
2021/04/16 05:10:36;;;;;;;4.33;2.03;;;;;;;4.50;62.18;101950.63;5061421;28;20218;-67
2021/04/16 05:13:02;;;;;;;2.87;1.90;;;;;;;4.50;62.80;101951.50;5057757;28;20237;-69
2021/04/16 05:15:28;;;;;;;4.47;2.43;;;;;;;4.50;62.81;101942.72;5057897;28;20225;-67
2021/04/16 05:17:54;;;;;;;4.03;2.37;;;;;;;4.51;62.31;101942.69;5056917;28;20210;-66
2021/04/16 05:20:21;;;;;;;4.23;2.33;;;;;;;4.54;62.97;101944.41;5057587;28;20213;-66
2021/04/16 05:22:47;;;;;;;3.43;2.10;;;;;;;4.55;62.98;101940.88;5059821;28;20212;-65
2021/04/16 05:25:14;;;;;;;4.07;2.50;;;;;;;4.58;62.59;101951.38;5069414;28;20298;-67
2021/04/16 05:27:41;;;;;;;4.87;2.23;;;;;;;4.61;62.59;101946.03;5068977;28;20481;-69
2021/04/16 05:30:08;;;;;;;3.80;2.10;;;;;;;4.66;63.36;101943.34;5072341;28;20565;-68
2021/04/16 05:32:34;;;;;;;5.13;2.30;;;;;;;4.69;62.80;101943.25;5068859;28;20276;-70
2021/04/16 05:35:00;;;;;;;5.93;2.70;;;;;;;4.71;62.81;101947.59;5068032;28;20702;-70
2021/04/16 05:37:26;;;;;;;4.73;2.30;;;;;;;4.75;63.44;101956.34;5071702;28;21446;-70
2021/04/16 05:39:52;;;;;;;5.50;2.60;;;;;;;4.77;62.77;101951.91;5072670;28;20201;-69
2021/04/16 05:42:20;;;;;;;2.80;2.13;;;;;;;4.80;63.31;101950.09;5071980;28;20228;-71
2021/04/16 05:44:46;;;;;;;3.57;2.40;;;;;;;4.82;63.29;101953.56;5072431;28;20225;-72
2021/04/16 05:47:12;;;;;;;5.57;2.80;;;;;;;4.84;63.61;101946.47;5071751;28;20768;-70
2021/04/16 05:49:38;;;;;;;5.10;2.73;;;;;;;4.85;63.14;101942.94;5072160;28;20204;-70
2021/04/16 05:52:05;;;;;;;3.03;2.70;;;;;;;4.91;63.74;101951.63;5072063;28;20343;-68
2021/04/16 05:54:31;;;;;;;5.27;2.90;;;;;;;4.92;63.57;101954.25;5071524;28;20791;-70
2021/04/16 05:56:57;;;;;;;3.90;2.50;;;;;;;4.96;63.16;101958.59;5072332;28;20284;-70
2021/04/16 05:59:24;;;;;;;2.47;2.27;;;;;;;4.99;63.09;101957.66;5069828;28;20669;-70
2021/04/16 06:01:50;;;;;;;3.07;2.27;;;;;;;5.04;63.10;101961.06;5071497;28;20670;-70
2021/04/16 06:04:18;;;;;;;3.73;2.57;;;;;;;5.07;63.61;101958.34;5066213;28;20240;-69
2021/04/16 06:06:44;;;;;;;4.03;2.70;;;;;;;5.09;62.98;101960.06;5058800;28;20748;-69
2021/04/16 06:09:10;;;;;;;5.03;2.80;;;;;;;5.11;63.67;101957.41;5060176;28;20206;-70
2021/04/16 06:11:37;;;;;;;5.40;2.67;;;;;;;5.13;63.20;101952.97;5063352;28;20227;-70
2021/04/16 06:14:03;;;;;;;4.63;2.90;;;;;;;5.15;63.13;101959.97;5071585;28;20231;-69
2021/04/16 06:16:30;;;;;;;4.63;2.80;;;;;;;5.17;63.02;101946.72;5063764;28;20206;-69
2021/04/16 06:18:56;;;;;;;4.23;2.60;;;;;;;5.18;63.32;101953.75;5056282;28;20240;-71
2021/04/16 06:21:22;;;;;;;5.17;2.77;;;;;;;5.18;63.51;101948.47;5057448;28;20206;-70
2021/04/16 06:23:48;;;;;;;3.47;2.30;;;;;;;5.19;63.41;101950.22;5063936;28;20200;-70
2021/04/16 06:26:14;;;;;;;3.77;2.53;;;;;;;5.18;62.89;101946.69;5059941;28;20296;-70
2021/04/16 06:28:40;;;;;;;4.77;2.47;;;;;;;5.20;63.44;101944.00;5057254;28;20205;-70
2021/04/16 06:31:07;;;;;;;6.03;2.57;;;;;;;5.22;63.04;101943.06;5062438;28;20227;-70
2021/04/16 06:33:36;;;;;;;4.30;2.90;;;;;;;5.27;63.14;101942.13;5065626;28;20261;-70
2021/04/16 06:36:08;;;;;;;4.17;2.80;;;;;;;5.30;62.94;101942.06;5061703;28;20232;-71
2021/04/16 06:38:37;;;;;;;4.30;3.17;;;;;;;5.36;63.00;101944.56;5060961;28;20209;-70
2021/04/16 06:41:04;;;;;;;5.43;3.00;;;;;;;5.43;63.22;101943.53;5061435;28;20201;-70
2021/04/16 06:43:38;;;;;;;3.93;2.37;;;;;;;5.51;63.30;101938.97;5059986;28;20598;-71
2021/04/16 06:46:07;;;;;;;6.23;2.80;;;;;;;5.61;63.50;101942.25;5063978;28;20201;-69
2021/04/16 06:48:34;;;;;;;4.20;2.70;;;;;;;5.68;63.05;101938.59;5061211;28;20217;-71
2021/04/16 06:51:01;;;;;;;3.50;2.57;;;;;;;5.74;62.69;101938.41;5062402;28;20212;-71
2021/04/16 06:53:36;;;;;;;4.67;2.47;;;;;;;5.77;62.44;101946.28;5066322;28;20205;-69
2021/04/16 06:56:05;;;;;;;4.13;2.90;;;;;;;5.82;62.29;101939.13;5062836;28;20228;-70
2021/04/16 06:58:36;;;;;;;6.03;2.83;;;;;;;5.87;62.09;101940.78;5066828;28;20212;-70
2021/04/16 07:01:09;;;;;;;5.53;3.23;;;;;;;5.97;62.09;101946.72;5064868;28;20206;-70
2021/04/16 07:03:41;;;;;;;4.63;3.20;;;;;;;6.07;61.75;101942.97;5060897;28;20197;-70
2021/04/16 07:06:16;;;;;;;7.10;3.47;;;;;;;6.16;61.23;101948.03;5062788;28;20693;-71
2021/04/16 07:08:49;;;;;;;7.03;3.50;;;;;;;6.23;60.41;101949.63;5066360;28;20219;-71
2021/04/16 07:11:23;;;;;;;6.20;2.73;;;;;;;6.30;60.28;101945.03;5062991;28;20410;-71
2021/04/16 07:13:49;;;;;;;6.33;3.20;;;;;;;6.37;59.75;101951.06;5061648;28;20693;-71
2021/04/16 07:16:17;;;;;;;7.10;3.00;;;;;;;6.39;59.44;101949.25;5062289;28;20236;-71
2021/04/16 07:18:47;;;;;;;5.60;3.27;;;;;;;6.44;59.28;101942.06;5061549;28;20298;-70
2021/04/16 07:21:16;;;;;;;7.47;3.40;;;;;;;6.47;59.24;101947.25;5063137;28;20223;-70
2021/04/16 07:23:53;;;;;;;7.47;3.20;;;;;;;6.51;58.84;101946.28;5059545;28;20205;-70
2021/04/16 07:26:30;;;;;;;6.80;3.70;;;;;;;6.57;58.66;101954.06;5060078;28;20204;-71
2021/04/16 07:28:57;;;;;;;6.33;3.47;;;;;;;6.65;58.56;101956.50;5063064;28;20201;-70
2021/04/16 07:31:37;;;;;;;6.77;3.60;;;;;;;6.68;58.07;101952.00;5059345;28;20212;-70
2021/04/16 07:34:14;;;;;;;4.70;3.60;;;;;;;6.73;58.01;101951.88;5065952;28;20228;-69
2021/04/16 07:36:42;;;;;;;5.27;3.10;;;;;;;6.77;57.57;101951.75;5065275;28;20701;-70
2021/04/16 07:39:26;;;;;;;8.30;3.93;;;;;;;6.83;57.75;101956.00;5064227;28;20209;-70
2021/04/16 07:41:55;;;;;;;4.33;3.10;;;;;;;6.90;57.28;101950.50;5062759;28;20211;-68
2021/04/16 07:44:24;;;;;;;9.27;3.80;;;;;;;7.00;57.09;101943.16;5061673;28;20518;-70
2021/04/16 07:46:53;;;;;;;7.33;3.80;;;;;;;7.06;56.95;101948.31;5061595;28;20312;-70
2021/04/16 07:49:31;;;;;;;3.87;2.50;;;;;;;7.08;56.16;101951.78;5057631;28;20666;-71
2021/04/16 07:52:19;;;;;;;6.07;2.77;;;;;;;7.13;56.15;101946.34;5057488;28;20736;-70
2021/04/16 07:55:07;;;;;;;3.37;1.97;;;;;;;7.22;55.85;101954.03;5059766;28;20274;-71
2021/04/16 07:57:36;;;;;;;3.47;2.10;;;;;;;7.31;55.29;101953.78;5058374;28;20198;-70
2021/04/16 08:00:08;;;;;;;5.50;2.23;;;;;;;7.42;55.24;101949.03;5057842;28;20201;-71
2021/04/16 08:02:40;;;;;;;2.20;1.73;;;;;;;7.54;54.53;101951.28;5061405;28;20212;-70
2021/04/16 08:05:16;;;;;;;5.47;2.30;;;;;;;7.68;54.46;101950.03;5058480;28;20235;-71
2021/04/16 08:07:42;;;;;;;5.10;2.30;;;;;;;7.81;53.84;101952.25;5059699;28;20251;-71
2021/04/16 08:10:16;;;;;;;3.37;2.17;;;;;;;7.98;54.07;101939.31;5053555;28;20671;-69
2021/04/16 08:12:42;;;;;;;3.60;2.00;;;;;;;8.17;53.21;101941.38;5054075;28;20221;-69
2021/04/16 08:15:19;;;;;;;5.20;2.13;;;;;;;8.30;52.56;101943.56;5054765;28;20224;-70
2021/04/16 08:17:45;;;;;;;4.20;1.80;;;;;;;8.43;52.07;101930.78;5051378;28;20577;-71
2021/04/16 08:20:24;;;;;;;2.40;1.57;;;;;;;8.52;50.80;101942.88;5052414;28;20215;-70
2021/04/16 08:22:50;;;;;;;3.70;1.90;;;;;;;8.54;50.04;101933.09;5052416;28;20221;-70
2021/04/16 08:25:21;;;;;;;4.67;1.70;;;;;;;8.62;50.26;101931.00;5064659;28;20220;-70
2021/04/16 08:27:53;;;;;;;3.57;1.50;;;;;;;8.73;49.79;101931.53;5056389;28;20229;-70
2021/04/16 08:30:24;;;;;;;3.83;2.07;;;;;;;8.78;48.89;101926.88;5057691;28;20208;-71
2021/04/16 08:32:56;;;;;;;2.67;1.80;;;;;;;8.87;48.96;101931.91;5067566;28;20205;-70
2021/04/16 08:35:28;;;;;;;2.63;2.00;;;;;;;8.99;48.63;101936.75;5068929;28;20241;-70
2021/04/16 08:37:58;;;;;;;4.57;1.83;;;;;;;9.11;48.35;101930.16;5061358;28;20658;-71
2021/04/16 08:40:28;;;;;;;3.37;1.87;;;;;;;9.26;47.67;101931.34;5066186;28;20607;-69
2021/04/16 08:42:57;;;;;;;3.27;2.00;;;;;;;9.39;47.79;101919.31;5068439;28;20670;-70
2021/04/16 08:45:27;;;;;;;4.20;1.83;;;;;;;9.50;46.94;101929.53;5066984;28;20224;-69
2021/04/16 08:47:56;;;;;;;2.27;1.70;;;;;;;9.57;46.53;101923.06;5065937;28;20217;-71
2021/04/16 08:50:29;;;;;;;2.23;2.03;;;;;;;9.63;45.82;101926.38;5067329;28;20216;-69
2021/04/16 08:52:57;;;;;;;2.07;1.60;;;;;;;9.72;46.05;101922.47;5061651;28;20210;-69
2021/04/16 08:55:30;;;;;;;1.10;1.00;;;;;;;9.81;45.27;101918.59;5064613;28;20233;-68
2021/04/16 08:57:59;;;;;;;1.43;1.00;;;;;;;9.90;44.76;101929.72;5066513;28;20201;-70
2021/04/16 09:00:33;;;;;;;2.40;0.90;;;;;;;9.94;42.82;101920.69;5063750;28;20205;-70
2021/04/16 09:03:00;;;;;;;2.30;1.10;;;;;;;10.01;43.24;101922.19;5058551;28;20209;-70
2021/04/16 09:05:29;;;;;;;2.20;1.00;;;;;;;10.10;43.97;101918.25;5100859;22;20239;-82
2021/04/16 09:07:59;;;;;;;1.77;1.23;;;;;;;10.17;41.58;101925.06;5116898;28;20605;-82
2021/04/16 09:10:42;;;;;;;2.67;1.00;;;;;;;10.15;41.81;101918.94;5116537;28;20200;-80
2021/04/16 09:13:14;;;;;;;1.97;1.00;;;;;;;10.14;41.26;101917.22;5116934;28;20228;-82
2021/04/16 09:15:43;;;;;;;1.63;1.00;;;;;;;10.20;40.54;101930.31;5116494;28;20187;-82
2021/04/16 09:18:33;;;;;;;3.37;1.23;;;;;;;10.14;40.56;101917.22;5116676;28;20310;-82
2021/04/16 09:21:23;;;;;;;1.43;1.10;;;;;;;10.16;41.40;101923.34;5117479;28;20689;-82
2021/04/16 09:23:58;;;;;;;2.53;1.13;;;;;;;10.21;41.33;101924.03;5117400;28;20254;-82
2021/04/16 09:26:53;;;;;;;2.80;1.40;;;;;;;10.27;41.65;101917.59;5117153;28;20244;-82
2021/04/16 09:29:35;;;;;;;1.50;1.40;;;;;;;10.30;41.55;101930.78;5116678;28;20214;-82
2021/04/16 09:32:04;;;;;;;2.07;1.37;;;;;;;10.32;41.39;101926.25;5117802;28;20219;-81
2021/04/16 09:34:50;;;;;;;2.37;1.40;;;;;;;10.36;41.31;101914.56;5120976;28;20207;-82
2021/04/16 09:37:27;;;;;;;3.90;1.20;;;;;;;10.43;42.40;101916.88;5120793;28;20194;-82
2021/04/16 09:40:24;;;;;;;2.47;1.27;;;;;;;10.54;41.76;101923.56;5121011;28;20223;-82
2021/04/16 09:42:53;;;;;;;2.20;1.47;;;;;;;10.58;41.14;101918.00;5120263;28;20270;-81
2021/04/16 09:45:41;;;;;;;2.13;1.40;;;;;;;10.66;41.43;101923.88;5120720;28;20214;-83
2021/04/16 09:48:09;;;;;;;1.90;1.40;;;;;;;10.72;41.08;101928.97;5121526;28;20227;-83
2021/04/16 09:50:39;;;;;;;2.00;1.20;;;;;;;10.71;40.74;101919.22;5120760;28;20240;-82
2021/04/16 09:53:26;;;;;;;2.10;1.40;;;;;;;10.72;40.86;101912.09;5119686;28;20231;-81
2021/04/16 09:56:17;;;;;;;1.57;1.30;;;;;;;10.82;41.33;101908.09;5120507;28;20233;-82
2021/04/16 09:59:09;;;;;;;3.13;1.80;;;;;;;10.94;41.07;101915.53;5120560;28;20184;-83
2021/04/16 10:02:13;;;;;;;2.30;1.60;;;;;;;11.04;40.73;101903.53;5120049;27;20195;-82
2021/04/16 10:04:51;;;;;;;1.93;1.30;;;;;;;11.11;40.88;101906.78;5108492;28;20670;-82
2021/04/16 10:07:20;;;;;;;4.80;1.47;;;;;;;11.24;40.59;101909.75;5120192;28;20227;-81
2021/04/16 10:09:47;;;;;;;3.60;1.67;;;;;;;11.34;40.55;101911.91;5119199;27;20207;-83
2021/04/16 10:12:22;;;;;;;3.03;1.40;;;;;;;11.41;40.01;101904.50;5119008;28;20307;-82
2021/04/16 10:14:48;;;;;;;3.77;1.40;;;;;;;11.48;39.83;101911.25;5119627;28;20194;-82
2021/04/16 10:17:20;;;;;;;3.20;1.60;;;;;;;11.56;39.80;101902.91;5119178;28;20200;-82
2021/04/16 10:19:48;;;;;;;2.93;1.50;;;;;;;11.63;40.04;101907.03;5118748;28;20192;-83
2021/04/16 10:22:28;;;;;;;2.57;1.40;;;;;;;11.70;39.81;101898.63;5119041;27;20215;-83
2021/04/16 12:39:48;;;;;;;1.90;1.30;;;;;;;13.23;33.40;101794.53;5115707;28;20186;-82
2021/04/16 12:42:14;;;;;;;2.83;1.40;;;;;;;13.24;32.15;101793.59;5116511;28;20227;-83
2021/04/16 12:44:44;;;;;;;4.07;1.57;;;;;;;13.19;31.83;101793.84;5115829;28;20211;-79
2021/04/16 12:47:12;;;;;;;1.83;1.67;;;;;;;13.14;31.53;101801.22;5115368;28;20226;-80
2021/04/16 12:49:38;;;;;;;1.83;1.30;;;;;;;13.08;31.62;101794.38;5116042;28;20213;-80
2021/04/16 12:52:06;;;;;;;2.13;1.50;;;;;;;13.07;31.82;101787.34;5115892;28;20227;-79
2021/04/16 12:54:39;;;;;;;3.60;1.43;;;;;;;13.08;31.86;101786.34;5116339;28;20640;-79
2021/04/16 12:57:07;;;;;;;1.60;1.47;;;;;;;13.10;31.87;101802.31;5115065;28;20188;-84
2021/04/16 12:59:36;;;;;;;3.47;1.37;;;;;;;13.05;31.39;101788.38;5115484;28;20211;-83
2021/04/16 13:02:04;;;;;;;2.93;1.50;;;;;;;13.04;31.41;101798.19;5114839;28;20233;-80
2021/04/16 13:04:32;;;;;;;1.93;1.27;;;;;;;13.08;31.41;101791.72;5115142;28;20211;-80
2021/04/16 13:07:00;;;;;;;3.50;1.80;;;;;;;13.14;31.69;101788.69;5117066;28;20207;-80
2021/04/16 13:09:26;;;;;;;2.77;1.87;;;;;;;13.18;31.52;101790.28;5119605;28;20231;-81
2021/04/16 13:11:52;;;;;;;2.37;1.50;;;;;;;13.20;31.74;101785.72;5118852;28;20213;-82
2021/04/16 13:14:20;;;;;;;1.77;1.30;;;;;;;13.22;31.76;101787.47;5120187;28;20206;-80
2021/04/16 13:16:46;;;;;;;2.57;1.30;;;;;;;13.20;31.67;101790.22;5120447;28;20558;-82
2021/04/16 13:19:22;;;;;;;1.60;1.30;;;;;;;13.20;31.58;101787.53;5119114;28;20210;-79
2021/04/16 13:21:48;;;;;;;3.00;1.50;;;;;;;13.25;31.81;101789.97;5119865;28;20187;-79
2021/04/16 13:24:14;;;;;;;1.97;1.30;;;;;;;13.30;31.62;101782.53;5118935;28;20206;-80
2021/04/16 13:26:40;;;;;;;2.33;1.77;;;;;;;13.31;31.10;101787.78;5119728;28;20223;-81
2021/04/16 13:29:06;;;;;;;1.73;1.30;;;;;;;13.28;30.27;101782.59;5120115;28;20559;-82
2021/04/16 13:31:35;;;;;;;3.43;1.37;;;;;;;13.27;29.59;101771.97;5120258;28;20562;-78
2021/04/16 13:34:02;;;;;;;3.30;1.60;;;;;;;13.29;30.02;101775.44;5120361;28;20252;-81
2021/04/16 13:36:30;;;;;;;2.23;1.40;;;;;;;13.33;30.57;101769.84;5119536;27;20211;-79
2021/04/16 13:38:56;;;;;;;2.10;1.70;;;;;;;13.42;30.93;101763.09;5119434;28;20673;-79
2021/04/16 13:41:23;;;;;;;1.57;1.47;;;;;;;13.44;31.19;101762.03;5119727;28;20211;-78
2021/04/16 13:43:49;;;;;;;3.53;1.90;;;;;;;13.46;31.08;101761.97;5118888;28;20227;-78
2021/04/16 13:46:18;;;;;;;2.70;1.80;;;;;;;13.53;31.47;101753.50;5118092;28;20226;-78
2021/04/16 13:48:46;;;;;;;3.23;1.90;;;;;;;13.61;31.68;101750.38;5118842;28;20235;-79
2021/04/16 13:51:14;;;;;;;2.30;1.33;;;;;;;13.72;31.92;101753.28;5118709;28;20211;-80
2021/04/16 13:53:40;;;;;;;2.97;1.73;;;;;;;13.79;31.25;101749.28;5118534;28;20586;-76
2021/04/16 13:56:06;;;;;;;3.13;1.70;;;;;;;13.84;30.65;101759.72;5117758;27;20204;-76